createdAt,value
2018-05-07T00:00:26.226Z,75.51
2018-05-07T00:01:26.245Z,75.22
2018-05-07T00:02:26.237Z,75.70
2018-05-07T00:03:26.225Z,75.47
2018-05-07T00:04:26.244Z,75.51
2018-05-07T00:05:26.224Z,75.85
2018-05-07T00:06:26.233Z,76.23
2018-05-07T00:07:26.229Z,76.71
2018-05-07T00:08:26.243Z,76.62
2018-05-07T00:09:26.263Z,76.42
2018-05-07T00:10:26.223Z,76.42
2018-05-07T00:11:26.223Z,76.90
2018-05-07T00:12:26.222Z,77.38
2018-05-07T00:13:26.255Z,77.38
2018-05-07T00:14:26.221Z,77.57
2018-05-07T00:15:26.220Z,78.01
2018-05-07T00:16:26.220Z,78.20
2018-05-07T00:17:26.219Z,78.10
2018-05-07T00:18:26.220Z,77.82
2018-05-07T00:19:26.219Z,77.82
2018-05-07T00:20:26.218Z,78.10
2018-05-07T00:21:26.223Z,77.82
2018-05-07T00:22:26.269Z,77.91
2018-05-07T00:23:26.217Z,78.30
2018-05-07T00:24:26.217Z,78.01
2018-05-07T00:25:26.216Z,78.49
2018-05-07T00:26:26.214Z,78.20
2018-05-07T00:28:26.203Z,78.20
2018-05-07T00:29:26.253Z,77.62
2018-05-07T00:30:26.201Z,78.30
2018-05-07T00:31:26.201Z,77.91
2018-05-07T00:32:26.201Z,77.82
2018-05-07T00:33:26.200Z,78.30
2018-05-07T00:34:26.199Z,78.30
2018-05-07T00:35:26.200Z,78.49
2018-05-07T00:36:26.199Z,78.49
2018-05-07T00:37:26.197Z,79.06
2018-05-07T00:38:26.197Z,79.15
2018-05-07T00:39:26.197Z,79.44
2018-05-07T00:40:26.197Z,79.72
2018-05-07T00:41:26.215Z,79.53
2018-05-07T00:42:26.196Z,79.53
2018-05-07T00:43:26.194Z,80.20
2018-05-07T00:44:26.194Z,80.01
2018-05-07T00:45:26.194Z,80.20
2018-05-07T00:46:26.192Z,80.20
2018-05-07T00:47:26.191Z,81.06
2018-05-07T00:48:26.192Z,80.58
2018-05-07T00:49:26.189Z,80.96
2018-05-07T00:50:26.189Z,80.30
2018-05-07T00:51:26.191Z,80.11
2018-05-07T00:52:26.187Z,81.15
2018-05-07T00:53:26.185Z,80.20
2018-05-07T00:54:26.187Z,80.77
2018-05-07T00:55:26.185Z,80.96
2018-05-07T00:56:26.186Z,80.58
2018-05-07T00:57:26.184Z,80.87
2018-05-07T00:58:26.183Z,81.06
2018-05-07T00:59:26.183Z,81.02
2018-05-07T01:00:26.183Z,80.54
2018-05-07T01:01:26.181Z,81.12
2018-05-07T01:02:26.181Z,81.49
2018-05-07T01:03:26.180Z,81.49
2018-05-07T01:04:26.178Z,81.30
2018-05-07T01:05:26.178Z,81.21
2018-05-07T01:06:26.176Z,81.30
2018-05-07T01:07:26.175Z,81.49
2018-05-07T01:08:26.174Z,81.40
2018-05-07T01:09:26.173Z,81.21
2018-05-07T01:10:26.173Z,81.88
2018-05-07T01:11:26.176Z,82.45
2018-05-07T01:12:26.174Z,82.17
2018-05-07T01:13:26.171Z,81.49
2018-05-07T01:14:26.170Z,80.83
2018-05-07T01:15:26.172Z,80.92
2018-05-07T01:16:26.171Z,79.97
2018-05-07T01:17:26.165Z,80.07
2018-05-07T01:18:26.164Z,80.92
2018-05-07T01:19:26.170Z,81.21
2018-05-07T01:20:26.163Z,81.12
2018-05-07T01:21:26.161Z,81.02
2018-05-07T01:22:26.161Z,80.92
2018-05-07T01:23:26.160Z,80.73
2018-05-07T01:24:26.162Z,80.73
2018-05-07T01:25:26.158Z,80.16
2018-05-07T01:26:26.156Z,80.92
2018-05-07T01:27:26.157Z,80.26
2018-05-07T01:28:26.157Z,79.88
2018-05-07T01:29:26.155Z,80.16
2018-05-07T01:30:26.152Z,80.73
2018-05-07T01:31:26.151Z,81.12
2018-05-07T01:32:26.152Z,80.92
2018-05-07T01:33:26.149Z,81.68
2018-05-07T01:34:26.147Z,80.26
2018-05-07T01:35:26.147Z,80.07
2018-05-07T01:36:26.147Z,80.16
2018-05-07T01:37:26.145Z,79.40
2018-05-07T01:38:26.145Z,79.49
2018-05-07T01:39:26.145Z,79.88
2018-05-07T01:40:26.144Z,78.92
2018-05-07T01:41:26.140Z,79.11
2018-05-07T01:42:26.140Z,79.02
2018-05-07T01:43:26.144Z,79.02
2018-05-07T01:44:26.148Z,78.92
2018-05-07T01:45:26.136Z,79.11
2018-05-07T01:46:26.136Z,78.16
2018-05-07T01:47:26.135Z,78.92
2018-05-07T01:48:26.135Z,79.88
2018-05-07T01:49:26.131Z,79.78
2018-05-07T01:50:26.130Z,79.68
2018-05-07T01:51:26.129Z,79.30
2018-05-07T01:52:26.128Z,80.12
2018-05-07T01:53:26.128Z,79.93
2018-05-07T01:54:26.125Z,79.83
2018-05-07T01:55:26.124Z,79.93
2018-05-07T01:56:26.125Z,80.79
2018-05-07T01:57:26.121Z,80.50
2018-05-07T01:58:26.121Z,81.36
2018-05-07T01:59:26.119Z,81.84
2018-05-07T02:00:26.122Z,81.74
2018-05-07T02:01:26.117Z,82.12
2018-05-07T02:02:26.115Z,82.03
2018-05-07T02:03:26.114Z,81.93
2018-05-07T02:04:26.114Z,81.74
2018-05-07T02:05:26.110Z,81.26
2018-05-07T02:06:26.109Z,81.26
2018-05-07T02:07:26.109Z,81.26
2018-05-07T02:08:26.108Z,82.12
2018-05-07T02:09:26.106Z,82.41
2018-05-07T02:10:26.105Z,82.41
2018-05-07T02:11:26.103Z,82.31
2018-05-07T02:12:26.101Z,81.74
2018-05-07T02:13:26.099Z,82.21
2018-05-07T02:14:26.099Z,82.12
2018-05-07T02:15:26.098Z,81.84
2018-05-07T02:16:26.097Z,82.50
2018-05-07T02:17:26.093Z,82.79
2018-05-07T02:18:26.093Z,82.89
2018-05-07T02:19:26.092Z,82.89
2018-05-07T02:20:26.090Z,82.98
2018-05-07T02:21:26.089Z,82.79
2018-05-07T02:22:26.088Z,82.60
2018-05-07T02:23:26.086Z,82.64
2018-05-07T02:24:26.085Z,82.54
2018-05-07T02:25:26.083Z,83.02
2018-05-07T02:26:26.083Z,82.69
2018-05-07T02:27:26.080Z,83.26
2018-05-07T02:28:26.080Z,83.45
2018-05-07T02:29:26.080Z,83.07
2018-05-07T02:30:26.080Z,83.84
2018-05-07T02:31:26.084Z,83.65
2018-05-07T02:32:26.074Z,83.55
2018-05-07T02:33:26.073Z,84.22
2018-05-07T02:34:26.074Z,84.50
2018-05-07T02:35:26.071Z,84.98
2018-05-07T02:36:26.075Z,84.60
2018-05-07T02:37:26.067Z,84.69
2018-05-07T02:38:26.066Z,84.69
2018-05-07T02:39:26.063Z,84.69
2018-05-07T02:40:26.063Z,85.46
2018-05-07T02:41:26.061Z,84.79
2018-05-07T02:42:26.059Z,84.22
2018-05-07T02:43:26.059Z,84.41
2018-05-07T02:44:26.056Z,83.55
2018-05-07T02:45:26.053Z,84.03
2018-05-07T02:46:26.052Z,83.84
2018-05-07T02:47:26.051Z,83.55
2018-05-07T02:48:26.051Z,83.55
2018-05-07T02:49:26.047Z,83.65
2018-05-07T02:50:26.048Z,84.03
2018-05-07T02:51:26.047Z,83.55
2018-05-07T02:52:26.048Z,84.03
2018-05-07T02:53:26.043Z,84.69
2018-05-07T02:54:26.048Z,84.69
2018-05-07T02:55:26.039Z,84.69
2018-05-07T02:56:26.038Z,84.88
2018-05-07T02:57:26.037Z,84.31
2018-05-07T02:58:26.082Z,84.79
2018-05-07T02:59:26.033Z,84.69
2018-05-07T03:00:26.032Z,84.69
2018-05-07T03:01:26.029Z,84.60
2018-05-07T03:02:26.028Z,84.88
2018-05-07T03:03:26.027Z,84.88
2018-05-07T03:04:26.031Z,84.94
2018-05-07T03:05:26.024Z,85.17
2018-05-07T03:06:26.022Z,84.98
2018-05-07T03:07:26.022Z,84.56
2018-05-07T03:08:26.020Z,85.36
2018-05-07T03:09:26.018Z,84.60
2018-05-07T03:10:26.017Z,85.22
2018-05-07T03:11:26.015Z,85.13
2018-05-07T03:12:26.014Z,85.08
2018-05-07T03:13:26.011Z,85.41
2018-05-07T03:14:26.012Z,85.08
2018-05-07T03:15:26.009Z,85.51
2018-05-07T03:16:26.007Z,85.51
2018-05-07T03:17:26.043Z,84.88
2018-05-07T03:18:26.003Z,84.69
2018-05-07T03:19:26.003Z,85.55
2018-05-07T03:20:26.001Z,84.88
2018-05-07T03:21:25.998Z,85.22
2018-05-07T03:22:25.997Z,85.60
2018-05-07T03:23:25.996Z,85.70
2018-05-07T03:24:25.995Z,85.99
2018-05-07T03:25:25.991Z,85.89
2018-05-07T03:26:25.990Z,85.99
2018-05-07T03:27:25.989Z,86.46
2018-05-07T03:28:25.987Z,86.75
2018-05-07T03:29:25.985Z,86.46
2018-05-07T03:30:25.984Z,86.55
2018-05-07T03:31:25.982Z,86.46
2018-05-07T03:32:25.980Z,86.55
2018-05-07T03:33:25.978Z,87.13
2018-05-07T03:34:25.977Z,87.13
2018-05-07T03:35:25.975Z,87.41
2018-05-07T03:36:25.973Z,87.32
2018-05-07T03:37:25.971Z,87.70
2018-05-07T03:38:25.970Z,87.60
2018-05-07T03:39:25.968Z,87.32
2018-05-07T03:40:25.972Z,87.32
2018-05-07T03:41:25.964Z,87.27
2018-05-07T03:42:25.962Z,87.79
2018-05-07T03:43:25.961Z,88.04
2018-05-07T03:44:25.959Z,87.85
2018-05-07T03:45:25.955Z,88.32
2018-05-07T03:46:25.955Z,88.99
2018-05-07T03:47:25.952Z,89.27
2018-05-07T03:48:25.950Z,89.37
2018-05-07T03:49:25.948Z,89.84
2018-05-07T03:50:25.948Z,89.84
2018-05-07T03:51:25.944Z,90.13
2018-05-07T03:52:25.942Z,89.94
2018-05-07T03:53:25.940Z,90.22
2018-05-07T03:54:25.942Z,89.84
2018-05-07T03:55:25.936Z,89.56
2018-05-07T03:56:25.934Z,89.56
2018-05-07T03:57:25.932Z,88.70
2018-05-07T03:58:25.931Z,88.70
2018-05-07T03:59:25.936Z,88.42
2018-05-07T04:00:25.924Z,88.46
2018-05-07T04:01:25.923Z,88.70
2018-05-07T04:02:25.923Z,88.70
2018-05-07T04:03:25.920Z,88.89
2018-05-07T04:04:25.918Z,88.51
2018-05-07T04:05:25.915Z,88.75
2018-05-07T04:06:25.913Z,88.37
2018-05-07T04:07:25.950Z,88.42
2018-05-07T04:08:25.909Z,88.60
2018-05-07T04:09:25.907Z,88.46
2018-05-07T04:10:25.906Z,87.85
2018-05-07T04:11:25.903Z,88.37
2018-05-07T04:12:25.901Z,88.70
2018-05-07T04:13:25.899Z,88.42
2018-05-07T04:14:25.896Z,88.60
2018-05-07T04:15:25.900Z,88.60
2018-05-07T04:16:25.894Z,88.51
2018-05-07T04:17:25.890Z,88.42
2018-05-07T04:18:25.889Z,88.42
2018-05-07T04:19:25.889Z,88.60
2018-05-07T04:20:25.890Z,88.32
2018-05-07T04:21:25.884Z,88.04
2018-05-07T04:22:25.882Z,88.32
2018-05-07T04:23:25.910Z,88.51
2018-05-07T04:24:25.877Z,89.32
2018-05-07T04:25:25.875Z,88.32
2018-05-07T04:26:25.878Z,88.51
2018-05-07T04:27:25.872Z,88.70
2018-05-07T04:28:25.869Z,88.70
2018-05-07T04:29:25.868Z,88.79
2018-05-07T04:30:25.865Z,88.65
2018-05-07T04:31:25.863Z,88.75
2018-05-07T04:32:25.861Z,88.65
2018-05-07T04:33:25.860Z,88.60
2018-05-07T04:34:25.858Z,88.84
2018-05-07T04:35:25.857Z,89.22
2018-05-07T04:36:25.854Z,89.13
2018-05-07T04:37:25.851Z,89.03
2018-05-07T04:38:25.849Z,89.22
2018-05-07T04:39:25.849Z,89.13
2018-05-07T04:40:25.848Z,89.32
2018-05-07T04:41:25.843Z,88.93
2018-05-07T04:42:25.841Z,88.37
2018-05-07T04:43:25.840Z,88.46
2018-05-07T04:44:25.842Z,88.27
2018-05-07T04:45:25.836Z,87.60
2018-05-07T04:46:25.835Z,88.08
2018-05-07T04:47:25.834Z,88.65
2018-05-07T04:48:25.832Z,88.56
2018-05-07T04:49:25.828Z,88.18
2018-05-07T04:50:25.828Z,88.18
2018-05-07T04:51:25.827Z,88.08
2018-05-07T04:52:25.824Z,87.98
2018-05-07T04:53:25.825Z,87.98
2018-05-07T04:54:25.820Z,88.37
2018-05-07T04:55:25.826Z,87.98
2018-05-07T04:56:25.818Z,87.98
2018-05-07T04:57:25.815Z,88.18
2018-05-07T04:58:25.814Z,88.08
2018-05-07T04:59:25.811Z,87.89
2018-05-07T05:00:25.809Z,88.03
2018-05-07T05:01:25.808Z,87.93
2018-05-07T05:02:25.806Z,88.03
2018-05-07T05:03:25.805Z,88.12
2018-05-07T05:04:25.803Z,87.84
2018-05-07T05:05:25.801Z,87.65
2018-05-07T05:06:25.801Z,88.31
2018-05-07T05:07:25.798Z,87.84
2018-05-07T05:08:25.802Z,87.74
2018-05-07T05:09:25.794Z,87.65
2018-05-07T05:10:25.795Z,87.46
2018-05-07T05:11:25.791Z,86.69
2018-05-07T05:12:25.797Z,86.88
2018-05-07T05:13:25.789Z,86.41
2018-05-07T05:14:25.789Z,86.12
2018-05-07T05:15:25.786Z,86.22
2018-05-07T05:16:25.788Z,86.12
2018-05-07T05:17:25.783Z,86.12
2018-05-07T05:18:25.781Z,85.97
2018-05-07T05:19:25.780Z,85.97
2018-05-07T05:20:25.780Z,85.88
2018-05-07T05:21:25.802Z,85.84
2018-05-07T05:22:25.776Z,85.97
2018-05-07T05:23:25.774Z,86.07
2018-05-07T05:24:25.773Z,86.36
2018-05-07T05:25:25.771Z,85.97
2018-05-07T05:26:25.771Z,85.97
2018-05-07T05:27:25.804Z,85.50
2018-05-07T05:28:25.768Z,85.21
2018-05-07T05:29:25.768Z,85.50
2018-05-07T05:30:25.769Z,85.21
2018-05-07T05:31:25.766Z,83.88
2018-05-07T05:32:25.766Z,83.97
2018-05-07T05:33:25.766Z,84.55
2018-05-07T05:34:25.761Z,84.59
2018-05-07T05:35:25.762Z,84.16
2018-05-07T05:36:25.763Z,84.40
2018-05-07T05:37:25.757Z,83.73
2018-05-07T05:38:25.757Z,83.73
2018-05-07T05:39:25.757Z,84.49
2018-05-07T05:40:25.756Z,84.11
2018-05-07T05:41:25.754Z,83.92
2018-05-07T05:42:25.753Z,83.83
2018-05-07T05:43:25.782Z,84.49
2018-05-07T05:44:25.752Z,83.83
2018-05-07T05:45:25.749Z,83.44
2018-05-07T05:46:25.752Z,83.54
2018-05-07T05:47:25.748Z,83.54
2018-05-07T05:48:25.747Z,83.64
2018-05-07T05:49:25.746Z,83.25
2018-05-07T05:50:25.748Z,83.54
2018-05-07T05:51:25.745Z,83.54
2018-05-07T05:52:25.746Z,83.73
2018-05-07T05:53:25.744Z,83.25
2018-05-07T05:54:25.743Z,82.91
2018-05-07T05:55:25.742Z,83.39
2018-05-07T05:56:25.814Z,83.73
2018-05-07T05:57:25.742Z,82.82
2018-05-07T05:58:25.740Z,83.48
2018-05-07T05:59:25.742Z,83.39
2018-05-07T06:00:25.743Z,82.43
2018-05-07T06:01:25.737Z,82.82
2018-05-07T06:02:25.738Z,82.63
2018-05-07T06:03:25.737Z,82.53
2018-05-07T06:04:25.738Z,82.24
2018-05-07T06:05:25.813Z,81.29
2018-05-07T06:06:25.840Z,81.01
2018-05-07T06:07:25.791Z,81.24
2018-05-07T06:08:25.750Z,80.19
2018-05-07T06:09:25.857Z,80.09
2018-05-07T06:10:25.961Z,79.80
2018-05-07T06:11:26.553Z,79.61
2018-05-07T06:12:25.949Z,80.09
2018-05-07T06:13:25.823Z,80.09
2018-05-07T06:14:25.793Z,79.61
2018-05-07T06:15:25.781Z,79.61
2018-05-07T06:16:25.801Z,79.80
2018-05-07T06:17:25.817Z,79.36
2018-05-07T06:18:25.834Z,79.36
2018-05-07T06:19:25.794Z,79.65
2018-05-07T06:20:25.732Z,80.51
2018-05-07T06:21:25.731Z,80.13
2018-05-07T06:22:25.730Z,79.36
2018-05-07T06:23:25.732Z,79.56
2018-05-07T06:24:25.731Z,80.41
2018-05-07T06:25:25.730Z,79.56
2018-05-07T06:26:25.731Z,78.79
2018-05-07T06:27:25.732Z,78.89
2018-05-07T06:28:25.736Z,78.13
2018-05-07T06:29:25.757Z,76.73
2018-05-07T06:30:26.055Z,76.82
2018-05-07T06:31:25.736Z,76.16
2018-05-07T06:32:25.734Z,76.16
2018-05-07T06:33:25.732Z,76.45
2018-05-07T06:34:26.228Z,75.78
2018-05-07T06:35:25.734Z,74.05
2018-05-07T06:36:26.023Z,73.67
2018-05-07T06:37:26.042Z,73.48
2018-05-07T06:38:26.093Z,74.91
2018-05-07T06:39:25.740Z,74.91
2018-05-07T06:40:25.737Z,73.61
2018-05-07T06:41:25.737Z,73.23
2018-05-07T06:42:25.738Z,74.28
2018-05-07T06:43:25.738Z,74.19
2018-05-07T06:44:25.739Z,73.33
2018-05-07T06:45:25.739Z,73.61
2018-05-07T06:46:25.975Z,74.38
2018-05-07T06:47:25.742Z,74.38
2018-05-07T06:48:25.766Z,73.23
2018-05-07T06:49:25.742Z,73.90
2018-05-07T06:50:25.744Z,72.94
2018-05-07T06:51:25.745Z,72.94
2018-05-07T06:52:25.747Z,71.61
2018-05-07T06:53:25.747Z,71.51
2018-05-07T06:54:25.748Z,70.75
2018-05-07T06:55:25.752Z,69.79
2018-05-07T06:56:25.749Z,70.75
2018-05-07T06:57:25.750Z,71.83
2018-05-07T06:58:25.751Z,71.83
2018-05-07T06:59:25.757Z,70.97
2018-05-07T07:00:26.240Z,71.64
2018-05-07T07:01:26.093Z,70.18
2018-05-07T07:02:25.853Z,68.21
2018-05-07T07:03:25.819Z,64.43
2018-05-07T07:04:25.836Z,62.07
2018-05-07T07:05:25.774Z,59.73
2018-05-07T07:06:25.842Z,57.68
2018-05-07T07:07:25.830Z,55.59
2018-05-07T07:08:25.919Z,54.75
2018-05-07T07:09:25.818Z,53.98
2018-05-07T07:10:25.806Z,53.02
2018-05-07T07:11:25.813Z,51.91
2018-05-07T07:12:25.820Z,54.93
2018-05-07T07:13:25.828Z,55.24
2018-05-07T07:14:25.837Z,56.15
2018-05-07T07:15:25.844Z,56.27
2018-05-07T07:16:25.861Z,56.08
2018-05-07T07:17:25.856Z,55.79
2018-05-07T07:18:25.868Z,56.30
2018-05-07T07:19:25.869Z,56.46
2018-05-07T07:20:25.875Z,56.27
2018-05-07T07:21:25.880Z,56.24
2018-05-07T07:22:25.887Z,57.95
2018-05-07T07:23:25.893Z,59.74
2018-05-07T07:24:25.899Z,60.12
2018-05-07T07:25:25.905Z,61.43
2018-05-07T07:26:25.909Z,61.75
2018-05-07T07:27:25.918Z,60.89
2018-05-07T07:28:25.920Z,61.56
2018-05-07T07:29:25.928Z,61.15
2018-05-07T07:30:25.933Z,60.76
2018-05-07T07:31:25.936Z,60.86
2018-05-07T07:32:25.942Z,61.34
2018-05-07T07:33:25.944Z,61.56
2018-05-07T07:34:25.958Z,62.04
2018-05-07T07:35:25.956Z,61.59
2018-05-07T07:36:25.961Z,61.85
2018-05-07T07:37:25.965Z,61.91
2018-05-07T07:38:25.969Z,61.91
2018-05-07T07:39:25.993Z,62.59
2018-05-07T07:40:25.980Z,62.59
2018-05-07T07:41:25.985Z,63.45
2018-05-07T07:42:25.991Z,63.26
2018-05-07T07:43:25.995Z,63.06
2018-05-07T07:44:26.001Z,63.67
2018-05-07T07:45:26.008Z,62.04
2018-05-07T07:46:26.007Z,62.90
2018-05-07T07:47:26.012Z,63.29
2018-05-07T07:48:26.017Z,63.86
2018-05-07T07:49:26.020Z,63.35
2018-05-07T07:50:26.025Z,63.35
2018-05-07T07:51:26.030Z,64.31
2018-05-07T07:52:26.037Z,63.64
2018-05-07T07:53:26.108Z,64.22
2018-05-07T07:54:26.044Z,64.12
2018-05-07T07:55:26.255Z,64.66
2018-05-07T07:56:26.056Z,64.18
2018-05-07T07:57:26.062Z,64.31
2018-05-07T07:58:26.066Z,64.53
2018-05-07T07:59:26.073Z,63.35
2018-05-07T08:00:26.081Z,61.05
2018-05-07T08:01:26.086Z,60.57
2018-05-07T08:02:26.093Z,59.95
2018-05-07T08:03:26.104Z,60.14
2018-05-07T08:04:26.109Z,58.80
2018-05-07T08:05:26.117Z,57.77
2018-05-07T08:06:26.126Z,57.13
2018-05-07T08:07:26.134Z,55.62
2018-05-07T08:08:26.143Z,56.22
2018-05-07T08:09:26.576Z,53.91
2018-05-07T08:10:26.162Z,53.45
2018-05-07T08:11:26.172Z,52.85
2018-05-07T08:12:26.216Z,53.05
2018-05-07T08:13:26.193Z,52.56
2018-05-07T08:14:26.204Z,53.11
2018-05-07T08:15:26.214Z,53.50
2018-05-07T08:16:26.224Z,53.11
2018-05-07T08:17:26.234Z,54.36
2018-05-07T08:18:26.249Z,54.10
2018-05-07T08:19:26.256Z,51.94
2018-05-07T08:20:26.267Z,53.09
2018-05-07T08:21:26.278Z,53.19
2018-05-07T08:22:26.287Z,51.75
2018-05-07T08:23:26.299Z,52.08
2018-05-07T08:24:26.342Z,52.85
2018-05-07T08:25:26.319Z,53.05
2018-05-07T08:26:26.330Z,53.43
2018-05-07T08:27:26.341Z,53.11
2018-05-07T08:28:26.352Z,54.78
2018-05-07T08:29:26.365Z,54.00
2018-05-07T08:30:26.377Z,54.22
2018-05-07T08:31:26.384Z,51.84
2018-05-07T08:32:26.395Z,49.87
2018-05-07T08:33:26.406Z,48.93
2018-05-07T08:34:26.418Z,49.24
2018-05-07T08:35:26.437Z,48.01
2018-05-07T08:36:26.448Z,46.92
2018-05-07T08:37:26.457Z,46.08
2018-05-07T08:38:26.472Z,46.00
2018-05-07T08:39:26.486Z,44.48
2018-05-07T08:40:26.498Z,44.63
2018-05-07T08:41:26.512Z,46.11
2018-05-07T08:42:26.525Z,48.01
2018-05-07T08:43:26.539Z,49.24
2018-05-07T08:44:26.555Z,50.21
2018-05-07T08:45:26.568Z,50.11
2018-05-07T08:46:26.581Z,50.62
2018-05-07T08:47:26.597Z,47.87
2018-05-07T08:48:26.610Z,47.50
2018-05-07T08:49:26.624Z,46.56
2018-05-07T08:50:26.640Z,47.31
2018-05-07T08:51:26.653Z,47.48
2018-05-07T08:52:26.669Z,47.48
2018-05-07T08:53:26.686Z,47.80
2018-05-07T08:54:26.728Z,46.54
2018-05-07T08:55:26.710Z,46.44
2018-05-07T08:56:26.726Z,46.25
2018-05-07T08:57:26.740Z,45.84
2018-05-07T08:58:26.754Z,46.61
2018-05-07T08:59:26.768Z,47.29
2018-05-07T09:00:26.783Z,47.48
2018-05-07T09:01:26.797Z,47.07
2018-05-07T09:02:26.813Z,47.45
2018-05-07T09:03:26.828Z,47.09
2018-05-07T09:04:26.841Z,47.48
2018-05-07T09:05:26.855Z,46.44
2018-05-07T09:06:26.870Z,45.76
2018-05-07T09:07:26.884Z,44.43
2018-05-07T09:08:26.899Z,45.79
2018-05-07T09:09:26.913Z,44.51
2018-05-07T09:10:26.927Z,45.07
2018-05-07T09:11:26.943Z,45.45
2018-05-07T09:12:26.959Z,45.84
2018-05-07T09:13:27.287Z,46.20
2018-05-07T09:14:26.987Z,47.63
2018-05-07T09:15:27.000Z,47.89
2018-05-07T09:16:27.015Z,47.82
2018-05-07T09:17:27.028Z,47.75
2018-05-07T09:18:27.043Z,50.47
2018-05-07T09:19:27.056Z,47.99
2018-05-07T09:20:27.072Z,45.50
2018-05-07T09:21:27.085Z,44.87
2018-05-07T09:22:27.346Z,43.10
2018-05-07T09:23:27.115Z,42.82
2018-05-07T09:24:27.128Z,43.41
2018-05-07T09:25:27.142Z,43.44
2018-05-07T09:26:27.156Z,43.05
2018-05-07T09:27:27.171Z,41.91
2018-05-07T09:28:27.188Z,41.52
2018-05-07T09:29:27.200Z,41.64
2018-05-07T09:30:27.214Z,41.93
2018-05-07T09:31:27.295Z,40.03
2018-05-07T09:32:27.245Z,41.66
2018-05-07T09:33:27.259Z,42.14
2018-05-07T09:34:27.273Z,43.32
2018-05-07T09:35:27.291Z,45.08
2018-05-07T09:36:27.304Z,42.18
2018-05-07T09:37:27.316Z,41.97
2018-05-07T09:38:27.332Z,42.96
2018-05-07T09:39:27.346Z,42.08
2018-05-07T09:40:27.362Z,40.92
2018-05-07T09:41:27.376Z,43.63
2018-05-07T09:42:27.390Z,42.65
2018-05-07T09:43:27.407Z,42.24
2018-05-07T09:44:27.419Z,43.30
2018-05-07T09:45:27.432Z,42.82
2018-05-07T09:46:27.448Z,44.38
2018-05-07T09:47:27.463Z,43.63
2018-05-07T09:48:27.476Z,44.17
2018-05-07T09:49:27.490Z,45.21
2018-05-07T09:50:27.505Z,45.38
2018-05-07T09:51:27.519Z,45.89
2018-05-07T09:52:27.531Z,45.67
2018-05-07T09:53:27.546Z,45.86
2018-05-07T09:54:27.560Z,45.18
2018-05-07T09:55:27.575Z,45.48
2018-05-07T09:56:27.599Z,46.39
2018-05-07T09:57:27.601Z,45.64
2018-05-07T09:58:27.616Z,43.63
2018-05-07T09:59:27.629Z,44.23
2018-05-07T10:00:27.642Z,43.55
2018-05-07T10:01:27.655Z,42.80
2018-05-07T10:02:27.714Z,42.90
2018-05-07T10:03:27.683Z,40.73
2018-05-07T10:04:27.698Z,43.07
2018-05-07T10:05:27.769Z,41.50
2018-05-07T10:06:27.793Z,42.57
2018-05-07T10:07:27.739Z,42.66
2018-05-07T10:08:27.753Z,42.47
2018-05-07T10:09:27.764Z,42.08
2018-05-07T10:10:27.779Z,44.50
2018-05-07T10:11:27.856Z,44.23
2018-05-07T10:12:27.806Z,43.48
2018-05-07T10:13:27.912Z,41.04
2018-05-07T10:14:27.901Z,41.31
2018-05-07T10:15:27.888Z,42.91
2018-05-07T10:16:27.885Z,43.98
2018-05-07T10:17:28.119Z,43.37
2018-05-07T10:18:27.914Z,43.68
2018-05-07T10:19:27.973Z,44.17
2018-05-07T10:20:27.977Z,42.83
2018-05-07T10:21:28.012Z,45.28
2018-05-07T10:22:28.026Z,43.44
2018-05-07T10:23:28.002Z,43.03
2018-05-07T10:24:27.967Z,44.12
2018-05-07T10:25:27.975Z,42.18
2018-05-07T10:26:27.987Z,41.91
2018-05-07T10:27:28.001Z,41.42
2018-05-07T10:28:28.021Z,42.51
2018-05-07T10:29:28.027Z,40.67
2018-05-07T10:30:28.039Z,41.04
2018-05-07T10:31:28.052Z,42.71
2018-05-07T10:32:28.069Z,44.06
2018-05-07T10:33:28.077Z,41.10
2018-05-07T10:34:28.090Z,40.23
2018-05-07T10:35:28.103Z,39.47
2018-05-07T10:36:28.117Z,39.37
2018-05-07T10:37:28.129Z,40.05
2018-05-07T10:38:28.142Z,39.49
2018-05-07T10:39:28.155Z,38.91
2018-05-07T10:40:28.168Z,40.58
2018-05-07T10:41:28.180Z,38.06
2018-05-07T10:42:28.267Z,39.32
2018-05-07T10:43:28.249Z,38.34
2018-05-07T10:44:28.333Z,37.41
2018-05-07T10:45:28.234Z,39.45
2018-05-07T10:46:28.246Z,40.42
2018-05-07T10:47:28.259Z,40.23
2018-05-07T10:48:28.272Z,40.21
2018-05-07T10:49:28.286Z,40.46
2018-05-07T10:50:28.300Z,41.55
2018-05-07T10:51:28.379Z,43.77
2018-05-07T10:52:28.327Z,43.02
2018-05-07T10:53:28.338Z,40.79
2018-05-07T10:54:28.350Z,40.09
2018-05-07T10:55:28.364Z,40.28
2018-05-07T10:56:28.500Z,43.19
2018-05-07T10:57:28.623Z,43.68
2018-05-07T10:58:28.421Z,41.91
2018-05-07T10:59:28.417Z,40.92
2018-05-07T11:00:28.434Z,41.19
2018-05-07T11:01:28.442Z,42.47
2018-05-07T11:02:28.453Z,44.40
2018-05-07T11:03:28.466Z,42.88
2018-05-07T11:04:28.480Z,43.00
2018-05-07T11:05:28.490Z,40.36
2018-05-07T11:06:28.506Z,41.70
2018-05-07T11:07:28.527Z,42.55
2018-05-07T11:08:28.559Z,43.20
2018-05-07T11:09:29.027Z,44.07
2018-05-07T11:10:28.552Z,43.51
2018-05-07T11:11:28.566Z,44.40
2018-05-07T11:12:28.613Z,43.24
2018-05-07T11:13:28.724Z,42.66
2018-05-07T11:14:28.604Z,41.79
2018-05-07T11:15:28.613Z,42.08
2018-05-07T11:16:28.643Z,42.47
2018-05-07T11:17:28.637Z,43.37
2018-05-07T11:18:28.654Z,42.08
2018-05-07T11:19:28.811Z,41.87
2018-05-07T11:20:28.673Z,41.77
2018-05-07T11:21:28.684Z,41.94
2018-05-07T11:22:28.696Z,43.40
2018-05-07T11:23:28.708Z,43.10
2018-05-07T11:24:28.721Z,43.41
2018-05-07T11:25:28.730Z,41.87
2018-05-07T11:26:28.741Z,41.97
2018-05-07T11:27:28.753Z,42.74
2018-05-07T11:28:28.765Z,43.13
2018-05-07T11:29:28.775Z,43.20
2018-05-07T11:30:28.787Z,43.20
2018-05-07T11:31:28.798Z,43.20
2018-05-07T11:32:28.808Z,43.98
2018-05-07T11:33:28.820Z,42.89
2018-05-07T11:34:28.831Z,43.84
2018-05-07T11:35:28.842Z,44.24
2018-05-07T11:36:28.853Z,43.47
2018-05-07T11:37:29.132Z,44.15
2018-05-07T11:38:28.873Z,47.07
2018-05-07T11:39:28.884Z,46.22
2018-05-07T11:40:28.895Z,44.23
2018-05-07T11:41:28.910Z,44.16
2018-05-07T11:42:28.915Z,43.00
2018-05-07T11:43:28.928Z,41.35
2018-05-07T11:44:28.939Z,41.62
2018-05-07T11:45:28.948Z,41.02
2018-05-07T11:46:28.958Z,41.60
2018-05-07T11:47:29.057Z,41.67
2018-05-07T11:48:28.980Z,43.10
2018-05-07T11:49:28.991Z,43.20
2018-05-07T11:50:29.312Z,43.49
2018-05-07T11:51:29.014Z,43.10
2018-05-07T11:52:29.024Z,44.38
2018-05-07T11:53:29.034Z,43.44
2018-05-07T11:54:29.044Z,42.18
2018-05-07T11:55:29.054Z,41.79
2018-05-07T11:56:29.065Z,42.49
2018-05-07T11:57:29.075Z,42.00
2018-05-07T11:58:29.085Z,41.42
2018-05-07T11:59:29.102Z,41.24
2018-05-07T12:00:29.409Z,40.46
2018-05-07T12:01:29.117Z,40.92
2018-05-07T12:02:29.207Z,42.18
2018-05-07T12:03:29.138Z,41.21
2018-05-07T12:04:29.163Z,42.40
2018-05-07T12:05:29.158Z,41.91
2018-05-07T12:06:29.170Z,40.75
2018-05-07T12:07:29.189Z,41.14
2018-05-07T12:08:29.191Z,43.68
2018-05-07T12:09:29.200Z,41.95
2018-05-07T12:10:29.211Z,40.91
2018-05-07T12:11:29.221Z,40.23
2018-05-07T12:12:29.240Z,41.61
2018-05-07T12:13:29.260Z,41.31
2018-05-07T12:14:29.253Z,38.19
2018-05-07T12:15:29.264Z,38.25
2018-05-07T12:16:29.275Z,39.57
2018-05-07T12:17:29.289Z,41.21
2018-05-07T12:18:29.295Z,40.83
2018-05-07T12:19:29.306Z,44.13
2018-05-07T12:20:29.321Z,44.84
2018-05-07T12:21:29.327Z,43.02
2018-05-07T12:22:29.339Z,41.30
2018-05-07T12:23:29.349Z,40.03
2018-05-07T12:24:29.362Z,38.96
2018-05-07T12:25:29.369Z,40.54
2018-05-07T12:26:29.382Z,37.90
2018-05-07T12:27:29.391Z,38.29
2018-05-07T12:28:29.623Z,38.83
2018-05-07T12:29:29.652Z,40.38
2018-05-07T12:30:29.425Z,41.04
2018-05-07T12:31:29.477Z,40.83
2018-05-07T12:32:29.445Z,41.11
2018-05-07T12:33:29.455Z,40.71
2018-05-07T12:34:29.564Z,41.67
2018-05-07T12:35:29.484Z,41.50
2018-05-07T12:36:29.489Z,41.79
2018-05-07T12:37:29.526Z,40.84
2018-05-07T12:38:29.508Z,40.17
2018-05-07T12:39:29.516Z,40.94
2018-05-07T12:40:29.530Z,40.36
2018-05-07T12:41:29.536Z,39.90
2018-05-07T12:42:29.546Z,39.97
2018-05-07T12:43:29.557Z,39.88
2018-05-07T12:44:29.566Z,39.18
2018-05-07T12:45:29.575Z,39.67
2018-05-07T12:46:29.585Z,40.53
2018-05-07T12:47:29.596Z,41.04
2018-05-07T12:48:29.605Z,40.36
2018-05-07T12:49:29.615Z,39.70
2018-05-07T12:50:29.624Z,40.09
2018-05-07T12:51:29.821Z,39.22
2018-05-07T12:52:29.657Z,38.83
2018-05-07T12:53:29.656Z,39.20